createdAt,value
2023-06-18T00:02:01.733Z,19.28
2023-06-18T00:04:28.980Z,19.29
2023-06-18T00:06:56.468Z,19.36
2023-06-18T00:09:24.406Z,19.20
2023-06-18T00:11:52.023Z,19.34
2023-06-18T00:14:19.648Z,19.26
2023-06-18T00:16:47.201Z,18.87
2023-06-18T00:19:15.638Z,18.77
2023-06-18T00:21:42.580Z,18.90
2023-06-18T00:24:09.548Z,18.70
2023-06-18T00:26:37.038Z,18.68
2023-06-18T00:29:03.998Z,18.77
2023-06-18T00:31:33.880Z,18.59
2023-06-18T00:34:06.419Z,18.67
2023-06-18T00:36:34.817Z,18.44
2023-06-18T00:39:04.228Z,18.72
2023-06-18T00:41:34.164Z,18.72
2023-06-18T00:44:01.072Z,18.71
2023-06-18T00:46:32.067Z,18.70
2023-06-18T00:48:59.890Z,18.67
2023-06-18T00:51:27.895Z,18.66
2023-06-18T00:53:57.633Z,18.68
2023-06-18T00:56:26.756Z,18.74
2023-06-18T00:58:53.808Z,18.70
2023-06-18T01:01:21.514Z,18.54
2023-06-18T01:03:49.905Z,18.68
2023-06-18T01:06:18.888Z,18.67
2023-06-18T01:08:50.410Z,18.57
2023-06-18T01:11:21.461Z,18.42
2023-06-18T01:13:49.241Z,18.42
2023-06-18T01:16:17.774Z,18.17
2023-06-18T01:18:51.798Z,18.12
2023-06-18T01:21:22.631Z,18.09
2023-06-18T01:24:20.390Z,18.13
2023-06-18T01:26:48.008Z,18.10
2023-06-18T01:29:16.080Z,18.07
2023-06-18T01:31:45.940Z,18.09
2023-06-18T01:34:14.095Z,18.17
2023-06-18T01:37:17.998Z,18.21
2023-06-18T01:40:21.773Z,18.26
2023-06-18T01:43:05.227Z,18.09
2023-06-18T01:45:41.734Z,18.17
2023-06-18T01:48:10.222Z,18.08
2023-06-18T01:50:40.077Z,18.21
2023-06-18T01:53:09.164Z,18.14
2023-06-18T01:55:39.436Z,18.02
2023-06-18T01:58:06.363Z,17.90
2023-06-18T02:00:33.913Z,17.84
2023-06-18T02:03:01.127Z,17.71
2023-06-18T02:05:28.287Z,17.76
2023-06-18T02:07:55.193Z,17.78
2023-06-18T02:10:22.443Z,17.69
2023-06-18T02:12:49.658Z,17.68
2023-06-18T02:15:16.726Z,17.66
2023-06-18T02:17:44.690Z,17.55
2023-06-18T02:20:12.199Z,17.66
2023-06-18T02:22:39.839Z,17.69
2023-06-18T02:25:07.458Z,17.63
2023-06-18T02:27:34.410Z,17.71
2023-06-18T02:30:05.980Z,17.52
2023-06-18T02:32:37.929Z,17.68
2023-06-18T02:35:05.542Z,17.55
2023-06-18T02:37:32.623Z,17.59
2023-06-18T02:39:59.506Z,17.62
2023-06-18T02:42:26.347Z,17.69
2023-06-18T02:44:53.923Z,17.76
2023-06-18T02:47:20.903Z,17.77
2023-06-18T02:49:47.730Z,17.84
2023-06-18T02:52:14.687Z,17.68
2023-06-18T02:54:43.237Z,17.45
2023-06-18T02:57:10.316Z,17.51
2023-06-18T02:59:37.169Z,17.55
2023-06-18T03:02:05.690Z,17.46
2023-06-18T03:04:32.619Z,17.39
2023-06-18T03:07:00.821Z,17.46
2023-06-18T03:09:29.068Z,17.36
2023-06-18T03:11:56.025Z,17.51
2023-06-18T03:14:23.590Z,17.39
2023-06-18T03:16:50.498Z,17.45
2023-06-18T03:19:17.453Z,17.47
2023-06-18T03:21:44.992Z,17.30
2023-06-18T03:24:12.851Z,17.18
2023-06-18T03:26:39.822Z,16.79
2023-06-18T03:29:07.144Z,16.43
2023-06-18T03:31:34.082Z,16.64
2023-06-18T03:34:04.334Z,16.73
2023-06-18T03:36:32.291Z,16.88
2023-06-18T03:38:59.238Z,17.36
2023-06-18T03:41:27.172Z,17.85
2023-06-18T03:43:54.037Z,17.85
2023-06-18T03:46:21.097Z,18.03
2023-06-18T03:48:48.112Z,18.22
2023-06-18T03:51:14.971Z,18.65
2023-06-18T03:53:41.916Z,18.80
2023-06-18T03:56:09.685Z,19.14
2023-06-18T03:58:36.849Z,19.17
2023-06-18T04:01:03.818Z,19.44
2023-06-18T04:03:30.924Z,20.00
2023-06-18T04:05:57.973Z,20.50
2023-06-18T04:08:24.903Z,20.86
2023-06-18T04:10:51.837Z,20.86
2023-06-18T04:13:19.657Z,21.04
2023-06-18T04:15:46.934Z,21.63
2023-06-18T04:18:14.635Z,22.12
2023-06-18T04:20:41.582Z,22.25
2023-06-18T04:23:09.774Z,22.33
2023-06-18T04:25:36.617Z,22.60
2023-06-18T04:28:03.585Z,22.89
2023-06-18T04:30:30.591Z,23.10
2023-06-18T04:32:57.697Z,23.52
2023-06-18T04:35:24.688Z,23.88
2023-06-18T04:37:51.650Z,23.89
2023-06-18T04:40:20.009Z,24.30
2023-06-18T04:42:47.977Z,24.64
2023-06-18T04:45:14.886Z,25.18
2023-06-18T04:47:42.101Z,25.68
2023-06-18T04:50:09.948Z,26.39
2023-06-18T04:52:36.939Z,26.58
2023-06-18T04:55:04.368Z,27.08
2023-06-18T04:57:31.273Z,27.37
2023-06-18T04:59:58.321Z,27.45
2023-06-18T05:02:26.283Z,27.66
2023-06-18T05:04:53.549Z,27.68
2023-06-18T05:07:20.484Z,28.13
2023-06-18T05:09:47.404Z,28.30
2023-06-18T05:12:15.790Z,28.69
2023-06-18T05:14:42.702Z,28.93
2023-06-18T05:17:09.740Z,29.16
2023-06-18T05:19:36.649Z,29.57
2023-06-18T05:22:03.634Z,29.69
2023-06-18T05:24:30.529Z,30.04
2023-06-18T05:26:57.494Z,30.16
2023-06-18T05:29:24.432Z,30.41
2023-06-18T05:31:51.410Z,30.50
2023-06-18T05:34:18.286Z,30.27
2023-06-18T05:36:45.221Z,30.89
2023-06-18T05:39:12.084Z,30.98
2023-06-18T05:41:38.979Z,30.95
2023-06-18T05:44:05.849Z,30.81
2023-06-18T05:46:32.894Z,31.37
2023-06-18T05:48:59.904Z,31.46
2023-06-18T05:51:27.111Z,31.54
2023-06-18T05:53:54.229Z,31.66
2023-06-18T05:56:21.127Z,31.52
2023-06-18T05:58:48.064Z,31.76
2023-06-18T06:01:15.662Z,32.08
2023-06-18T06:03:42.677Z,32.11
2023-06-18T06:06:10.147Z,32.33
2023-06-18T06:08:37.785Z,32.72
2023-06-18T06:11:04.739Z,32.60
2023-06-18T06:13:31.662Z,32.31
2023-06-18T06:15:58.595Z,31.88
2023-06-18T06:18:25.582Z,31.84
2023-06-18T06:20:52.550Z,31.86
2023-06-18T06:23:19.435Z,31.84
2023-06-18T06:25:46.928Z,31.76
2023-06-18T06:28:13.984Z,31.57
2023-06-18T06:30:40.863Z,31.41
2023-06-18T06:33:07.823Z,31.17
2023-06-18T06:35:34.861Z,31.96
2023-06-18T06:38:01.767Z,32.30
2023-06-18T06:40:31.572Z,32.63
2023-06-18T06:42:58.721Z,33.20
2023-06-18T06:45:26.491Z,33.48
2023-06-18T06:47:53.475Z,33.54
2023-06-18T06:50:21.262Z,33.75
2023-06-18T06:52:48.379Z,33.56
2023-06-18T06:55:15.435Z,33.49
2023-06-18T06:57:42.330Z,33.35
2023-06-18T07:00:12.219Z,33.21
2023-06-18T07:02:39.369Z,33.20
2023-06-18T07:05:08.208Z,33.06
2023-06-18T07:07:39.523Z,33.13
2023-06-18T07:10:26.580Z,33.31
2023-06-18T07:12:53.631Z,33.46
2023-06-18T07:15:20.753Z,32.73
2023-06-18T07:17:47.658Z,32.82
2023-06-18T07:20:14.653Z,33.14
2023-06-18T07:22:41.837Z,33.03
2023-06-18T07:25:09.178Z,33.35
2023-06-18T07:27:36.453Z,33.67
2023-06-18T07:30:03.819Z,34.08
2023-06-18T07:32:30.760Z,34.73
2023-06-18T07:34:57.680Z,34.65
2023-06-18T07:37:24.557Z,34.55
2023-06-18T07:39:51.502Z,34.17
2023-06-18T07:42:18.461Z,34.11
2023-06-18T07:44:45.313Z,33.95
2023-06-18T07:47:12.241Z,34.30
2023-06-18T07:49:39.159Z,34.08
2023-06-18T07:52:06.562Z,33.95
2023-06-18T07:54:35.990Z,33.98
2023-06-18T07:57:03.692Z,34.56
2023-06-18T07:59:30.556Z,34.77
2023-06-18T08:01:57.798Z,35.35
2023-06-18T08:04:25.064Z,35.90
2023-06-18T08:06:52.193Z,36.18
2023-06-18T08:09:19.223Z,36.79
2023-06-18T08:11:46.331Z,37.27
2023-06-18T08:14:13.249Z,37.50
2023-06-18T08:16:40.654Z,37.86
2023-06-18T08:19:07.678Z,37.78
2023-06-18T08:21:34.570Z,38.04
2023-06-18T08:24:01.496Z,38.20
2023-06-18T08:26:28.444Z,38.51
2023-06-18T08:28:55.534Z,38.54
2023-06-18T08:31:23.326Z,36.36
2023-06-18T08:33:51.548Z,36.05
2023-06-18T08:36:21.630Z,36.81
2023-06-18T08:38:49.038Z,37.27
2023-06-18T08:41:16.348Z,37.79
2023-06-18T08:43:43.353Z,36.86
2023-06-18T08:46:11.746Z,35.92
2023-06-18T08:48:45.105Z,36.13
2023-06-18T08:51:13.091Z,35.45
2023-06-18T08:53:52.372Z,35.35
2023-06-18T08:56:23.009Z,36.01
2023-06-18T08:58:52.338Z,35.99
2023-06-18T09:01:22.241Z,36.50
2023-06-18T09:03:50.985Z,36.97
2023-06-18T09:06:18.684Z,37.32
2023-06-18T09:08:47.946Z,37.83
2023-06-18T09:11:14.997Z,38.48
2023-06-18T09:13:44.152Z,38.73
2023-06-18T09:16:12.133Z,38.24
2023-06-18T09:18:39.274Z,38.84
2023-06-18T09:21:06.938Z,39.19
2023-06-18T09:23:34.105Z,39.12
2023-06-18T09:26:02.314Z,39.26
2023-06-18T09:28:29.572Z,38.95
2023-06-18T09:31:02.540Z,38.56
2023-06-18T09:33:37.788Z,38.49
2023-06-18T09:36:09.964Z,38.91
2023-06-18T09:38:39.445Z,39.20
2023-06-18T09:41:13.491Z,39.29
2023-06-18T09:43:42.414Z,39.65
2023-06-18T09:46:10.013Z,39.72
2023-06-18T09:48:38.946Z,39.65
2023-06-18T09:51:06.100Z,39.77
2023-06-18T09:53:34.088Z,40.03
2023-06-18T09:56:14.305Z,40.49
2023-06-18T09:58:47.458Z,40.99
2023-06-18T10:01:15.716Z,40.95
2023-06-18T10:03:43.441Z,40.69
2023-06-18T10:06:17.588Z,40.98
2023-06-18T10:08:53.961Z,41.47
2023-06-18T10:11:23.019Z,41.96
2023-06-18T10:13:59.683Z,42.05
2023-06-18T10:16:30.233Z,42.13
2023-06-18T10:19:12.510Z,42.12
2023-06-18T10:22:02.118Z,40.82
2023-06-18T10:24:42.887Z,39.58
2023-06-18T10:27:09.863Z,39.14
2023-06-18T10:29:36.703Z,38.84
2023-06-18T10:32:05.862Z,38.97
2023-06-18T10:34:37.886Z,37.68
2023-06-18T10:37:05.624Z,38.15
2023-06-18T10:39:35.405Z,38.29
2023-06-18T10:42:13.741Z,38.98
2023-06-18T10:44:51.741Z,39.20
2023-06-18T10:47:30.065Z,39.37
2023-06-18T10:50:09.317Z,39.63
2023-06-18T10:52:37.162Z,38.98
2023-06-18T10:55:14.653Z,39.49
2023-06-18T10:57:46.137Z,39.76
2023-06-18T11:00:16.436Z,39.08
2023-06-18T11:02:44.121Z,39.23
2023-06-18T11:05:43.977Z,39.29
2023-06-18T11:08:13.202Z,39.74
2023-06-18T11:10:50.047Z,39.83
2023-06-18T11:13:18.240Z,40.30
2023-06-18T11:15:59.354Z,40.48
2023-06-18T11:18:28.443Z,40.96
2023-06-18T11:20:57.542Z,41.28
2023-06-18T11:23:26.160Z,41.57
2023-06-18T11:25:53.236Z,41.88
2023-06-18T11:28:22.280Z,40.84
2023-06-18T11:30:54.527Z,40.32
2023-06-18T11:33:26.449Z,40.22
2023-06-18T11:35:54.818Z,40.42
2023-06-18T11:38:23.648Z,40.76
2023-06-18T11:40:55.316Z,41.20
2023-06-18T11:43:22.630Z,41.67
2023-06-18T11:45:55.505Z,41.13
2023-06-18T11:48:22.957Z,41.17
2023-06-18T11:50:56.396Z,41.60
2023-06-18T11:53:23.983Z,40.88
2023-06-18T11:55:54.778Z,40.53
2023-06-18T11:58:22.427Z,40.85
2023-06-18T12:00:49.936Z,41.03
2023-06-18T12:03:16.982Z,40.07
2023-06-18T12:05:43.890Z,38.29
2023-06-18T12:08:10.812Z,38.29
2023-06-18T12:10:39.736Z,38.48
2023-06-18T12:13:15.576Z,38.68
2023-06-18T12:16:03.114Z,38.68
2023-06-18T12:18:35.509Z,38.98
2023-06-18T12:21:04.174Z,39.14
2023-06-18T12:23:32.008Z,39.35
2023-06-18T12:25:59.751Z,39.91
2023-06-18T12:28:26.751Z,39.81
2023-06-18T12:30:53.694Z,39.82
2023-06-18T12:33:20.863Z,39.50
2023-06-18T12:35:52.156Z,39.03
2023-06-18T12:38:19.842Z,38.22
2023-06-18T12:40:56.715Z,37.87
2023-06-18T12:43:27.096Z,38.15
2023-06-18T12:45:54.287Z,38.54
2023-06-18T12:48:29.578Z,38.84
2023-06-18T12:50:57.239Z,37.35
2023-06-18T12:53:26.497Z,36.71
2023-06-18T12:55:58.062Z,37.20
2023-06-18T12:58:30.154Z,37.78
2023-06-18T13:01:00.695Z,37.73
2023-06-18T13:03:28.651Z,37.94
2023-06-18T13:05:57.462Z,37.75
2023-06-18T13:08:24.477Z,37.64
2023-06-18T13:10:53.466Z,37.88
2023-06-18T13:13:20.970Z,38.34
2023-06-18T13:15:49.611Z,37.70
2023-06-18T13:18:19.707Z,36.98
2023-06-18T13:20:48.966Z,36.31
2023-06-18T13:23:16.918Z,34.65
2023-06-18T13:25:44.873Z,35.42
2023-06-18T13:28:12.307Z,34.49
2023-06-18T13:30:39.291Z,33.74
2023-06-18T13:33:06.480Z,34.33
2023-06-18T13:35:34.040Z,34.56
2023-06-18T13:38:01.029Z,35.13
2023-06-18T13:40:29.135Z,35.69
2023-06-18T13:42:56.607Z,36.35
2023-06-18T13:45:24.435Z,36.64
2023-06-18T13:47:51.542Z,36.99
2023-06-18T13:50:18.893Z,36.93
2023-06-18T13:52:45.778Z,36.87
2023-06-18T13:55:12.824Z,37.13
2023-06-18T13:57:39.891Z,37.66
2023-06-18T14:00:09.261Z,38.11
2023-06-18T14:02:41.602Z,38.17
2023-06-18T14:05:09.567Z,37.17
2023-06-18T14:07:36.808Z,38.10
2023-06-18T14:10:04.973Z,38.48
2023-06-18T14:12:31.864Z,38.43
2023-06-18T14:14:58.899Z,38.79
2023-06-18T14:17:27.181Z,39.06
2023-06-18T14:19:55.405Z,39.34
2023-06-18T14:22:22.481Z,39.49
2023-06-18T14:24:49.841Z,39.17
2023-06-18T14:27:17.228Z,38.97
2023-06-18T14:29:44.156Z,38.81
2023-06-18T14:32:11.094Z,38.93
2023-06-18T14:34:37.934Z,39.07
2023-06-18T14:37:05.222Z,39.18
2023-06-18T14:39:32.073Z,39.38
2023-06-18T14:41:58.999Z,39.61
2023-06-18T14:44:28.312Z,39.80
2023-06-18T14:46:55.380Z,39.91
2023-06-18T14:49:22.391Z,39.95
2023-06-18T14:51:49.361Z,40.16
2023-06-18T14:54:17.723Z,39.21
2023-06-18T14:56:47.862Z,39.25
2023-06-18T14:59:14.835Z,39.01
2023-06-18T15:01:41.912Z,38.90
2023-06-18T15:04:09.309Z,39.05
2023-06-18T15:06:36.956Z,39.22
2023-06-18T15:09:05.612Z,39.33
2023-06-18T15:11:33.523Z,39.12
2023-06-18T15:14:00.667Z,38.97
2023-06-18T15:16:28.017Z,38.49
2023-06-18T15:18:54.892Z,37.42
2023-06-18T15:21:21.796Z,37.28
2023-06-18T15:23:48.677Z,36.88
2023-06-18T15:26:16.489Z,36.80
2023-06-18T15:28:46.115Z,36.79
2023-06-18T15:31:13.907Z,36.78
2023-06-18T15:33:42.806Z,36.60
2023-06-18T15:36:10.044Z,36.43
2023-06-18T15:38:37.480Z,36.63
2023-06-18T15:41:05.059Z,36.59
2023-06-18T15:43:32.648Z,36.86
2023-06-18T15:45:59.767Z,37.03
2023-06-18T15:48:26.708Z,37.11
2023-06-18T15:50:53.731Z,37.26
2023-06-18T15:53:20.921Z,37.29
2023-06-18T15:55:48.677Z,37.38
2023-06-18T15:58:17.034Z,37.40
2023-06-18T16:00:43.890Z,37.39
2023-06-18T16:03:10.992Z,37.42
2023-06-18T16:05:39.906Z,37.47
2023-06-18T16:08:07.009Z,37.37
2023-06-18T16:10:36.441Z,37.47
2023-06-18T16:13:05.176Z,37.36
2023-06-18T16:15:32.062Z,37.20
2023-06-18T16:18:04.778Z,37.30
2023-06-18T16:20:33.402Z,36.99
2023-06-18T16:23:02.060Z,36.99
2023-06-18T16:25:29.060Z,36.94
2023-06-18T16:27:58.647Z,36.76
2023-06-18T16:30:27.143Z,36.55
2023-06-18T16:32:55.282Z,36.33
2023-06-18T16:35:23.406Z,36.38
2023-06-18T16:37:55.700Z,35.94
2023-06-18T16:40:24.307Z,35.58
2023-06-18T16:42:51.269Z,35.31
2023-06-18T16:45:18.352Z,35.17
2023-06-18T16:47:45.379Z,35.07
2023-06-18T16:50:13.696Z,34.87
2023-06-18T16:52:40.671Z,34.76
2023-06-18T16:55:08.335Z,34.75
2023-06-18T16:57:35.244Z,34.46
2023-06-18T17:00:02.389Z,34.21
2023-06-18T17:02:32.444Z,34.17
2023-06-18T17:04:59.597Z,34.06
2023-06-18T17:07:28.505Z,34.00
2023-06-18T17:09:55.759Z,33.84
2023-06-18T17:12:22.939Z,33.54
2023-06-18T17:14:49.774Z,33.51
2023-06-18T17:17:16.814Z,33.34
2023-06-18T17:19:43.933Z,33.36
2023-06-18T17:22:11.744Z,33.36
2023-06-18T17:24:40.348Z,33.13
2023-06-18T17:27:08.008Z,33.06
2023-06-18T17:29:34.954Z,33.05
2023-06-18T17:32:02.019Z,33.11
2023-06-18T17:34:28.959Z,32.94
2023-06-18T17:36:56.009Z,32.90
2023-06-18T17:39:24.319Z,32.70
2023-06-18T17:41:51.953Z,32.44
2023-06-18T17:44:19.659Z,32.16
2023-06-18T17:46:46.770Z,32.23
2023-06-18T17:49:14.439Z,32.15
2023-06-18T17:51:41.333Z,32.08
2023-06-18T17:54:09.102Z,31.94
2023-06-18T17:56:36.411Z,31.62
2023-06-18T17:59:03.364Z,31.70
2023-06-18T18:01:30.687Z,31.48
2023-06-18T18:03:57.932Z,31.37
2023-06-18T18:06:25.193Z,31.41
2023-06-18T18:08:52.685Z,31.47
2023-06-18T18:11:19.746Z,31.49
2023-06-18T18:13:46.726Z,31.58
2023-06-18T18:16:13.894Z,31.54
2023-06-18T18:18:40.801Z,31.36
2023-06-18T18:21:07.773Z,31.15
2023-06-18T18:23:37.060Z,30.95
2023-06-18T18:26:11.630Z,30.87
2023-06-18T18:28:39.432Z,30.79
2023-06-18T18:31:06.735Z,30.50
2023-06-18T18:33:34.260Z,30.24
2023-06-18T18:36:01.394Z,30.14
2023-06-18T18:38:28.362Z,30.11
2023-06-18T18:40:55.276Z,30.10
2023-06-18T18:43:22.148Z,30.10
2023-06-18T18:45:49.096Z,30.13
2023-06-18T18:48:16.547Z,30.16
2023-06-18T18:50:43.505Z,30.27
2023-06-18T18:53:10.342Z,29.93
2023-06-18T18:55:37.769Z,29.84
2023-06-18T18:58:04.641Z,29.65
2023-06-18T19:00:32.095Z,29.55
2023-06-18T19:02:59.128Z,29.41
2023-06-18T19:05:26.178Z,29.37
2023-06-18T19:07:53.031Z,29.36
2023-06-18T19:10:19.924Z,29.41
2023-06-18T19:12:52.227Z,29.30
2023-06-18T19:15:19.470Z,28.59
2023-06-18T19:17:46.878Z,28.52
2023-06-18T19:20:14.352Z,28.58
2023-06-18T19:22:41.272Z,28.30
2023-06-18T19:25:08.633Z,27.94
2023-06-18T19:27:35.519Z,27.74
2023-06-18T19:30:02.933Z,27.34
2023-06-18T19:32:30.020Z,27.35
2023-06-18T19:34:56.951Z,27.25
2023-06-18T19:37:23.948Z,27.23
2023-06-18T19:39:50.860Z,27.32
2023-06-18T19:42:18.055Z,27.49
2023-06-18T19:44:45.908Z,27.47
2023-06-18T19:47:13.356Z,27.45
2023-06-18T19:49:40.290Z,27.22
2023-06-18T19:52:07.426Z,27.39
2023-06-18T19:54:35.653Z,27.55
2023-06-18T19:57:02.558Z,27.50
2023-06-18T19:59:29.572Z,27.19
2023-06-18T20:01:56.461Z,27.26
2023-06-18T20:04:23.396Z,27.20
2023-06-18T20:06:50.333Z,27.15
2023-06-18T20:09:17.257Z,27.23
2023-06-18T20:11:44.279Z,27.16
2023-06-18T20:14:13.267Z,27.12
2023-06-18T20:16:40.306Z,27.00
2023-06-18T20:19:07.229Z,27.05
2023-06-18T20:21:34.175Z,26.95
2023-06-18T20:24:01.938Z,26.80
2023-06-18T20:26:28.883Z,26.91
2023-06-18T20:28:55.818Z,26.79
2023-06-18T20:31:22.763Z,26.63
2023-06-18T20:33:49.639Z,26.34
2023-06-18T20:36:17.609Z,26.22
2023-06-18T20:38:44.477Z,26.13
2023-06-18T20:41:12.208Z,26.08
2023-06-18T20:43:39.078Z,25.99
2023-06-18T20:46:06.184Z,26.02
2023-06-18T20:48:33.964Z,25.99
2023-06-18T20:51:05.074Z,25.77
2023-06-18T20:53:33.158Z,25.78
2023-06-18T20:56:01.253Z,25.63
2023-06-18T20:58:28.241Z,25.48
2023-06-18T21:00:55.291Z,25.50
2023-06-18T21:03:25.123Z,25.52
2023-06-18T21:05:52.051Z,25.44
2023-06-18T21:08:19.968Z,25.38
2023-06-18T21:10:47.185Z,25.42
2023-06-18T21:13:14.178Z,25.25
2023-06-18T21:15:41.123Z,25.13
2023-06-18T21:18:08.397Z,24.46
2023-06-18T21:20:35.445Z,24.15
2023-06-18T21:23:02.390Z,24.19
2023-06-18T21:25:29.316Z,24.31
2023-06-18T21:27:57.329Z,24.38
2023-06-18T21:30:25.859Z,24.45
2023-06-18T21:32:54.049Z,24.53
2023-06-18T21:35:21.556Z,24.70
2023-06-18T21:37:49.506Z,24.67
2023-06-18T21:40:17.330Z,24.52
2023-06-18T21:42:45.078Z,24.48
2023-06-18T21:45:13.410Z,24.52
2023-06-18T21:47:41.075Z,24.40
2023-06-18T21:50:11.437Z,24.40
2023-06-18T21:52:38.421Z,24.54
2023-06-18T21:55:05.876Z,24.42
2023-06-18T21:57:32.765Z,24.39
2023-06-18T21:59:59.950Z,24.37
2023-06-18T22:02:27.335Z,24.33
2023-06-18T22:04:54.323Z,24.40
2023-06-18T22:07:21.220Z,24.50
2023-06-18T22:09:48.179Z,24.24
2023-06-18T22:12:15.059Z,24.12
2023-06-18T22:14:41.960Z,23.99
2023-06-18T22:17:13.881Z,23.83
2023-06-18T22:19:40.872Z,23.69
2023-06-18T22:22:07.715Z,23.46
2023-06-18T22:24:34.655Z,23.46
2023-06-18T22:27:01.892Z,23.34
2023-06-18T22:29:28.818Z,23.48
2023-06-18T22:31:55.740Z,23.49
2023-06-18T22:34:36.570Z,23.40
2023-06-18T22:37:07.848Z,23.33
2023-06-18T22:39:34.756Z,23.32
2023-06-18T22:42:03.258Z,23.28
2023-06-18T22:44:30.147Z,23.08
2023-06-18T22:46:57.196Z,22.73
2023-06-18T22:49:24.193Z,22.84
2023-06-18T22:51:58.911Z,22.65
2023-06-18T22:54:27.003Z,22.70
2023-06-18T22:56:54.385Z,22.96
2023-06-18T22:59:21.374Z,22.81
2023-06-18T23:01:48.689Z,22.79
2023-06-18T23:04:15.846Z,22.56
2023-06-18T23:06:42.932Z,22.64
2023-06-18T23:09:09.874Z,22.38
2023-06-18T23:11:36.798Z,22.36
2023-06-18T23:14:04.438Z,22.55
2023-06-18T23:16:31.306Z,22.44
2023-06-18T23:18:58.997Z,22.47
2023-06-18T23:21:35.134Z,22.53
2023-06-18T23:24:13.047Z,22.53
2023-06-18T23:26:40.494Z,22.62
2023-06-18T23:29:11.282Z,22.53
2023-06-18T23:31:38.593Z,22.51
2023-06-18T23:34:07.588Z,22.43
2023-06-18T23:36:36.535Z,22.30
2023-06-18T23:39:04.545Z,22.08
2023-06-18T23:41:31.422Z,22.34
2023-06-18T23:43:58.284Z,22.01
2023-06-18T23:46:25.348Z,21.70
2023-06-18T23:48:52.321Z,21.95
2023-06-18T23:51:19.212Z,21.84
2023-06-18T23:53:48.529Z,21.96
2023-06-18T23:56:15.857Z,21.84
2023-06-18T23:58:42.803Z,22.01
